sensor_id;sensor_type;location;lat;lon;timestamp;pressure;altitude;pressure_sealevel;temperature;humidity
7990;BME280;4040;42.848;23.034;2023-11-19T00:01:07;94884.53;;;3.02;100.00
7990;BME280;4040;42.848;23.034;2023-11-19T00:06:55;94889.72;;;2.95;100.00
7990;BME280;4040;42.848;23.034;2023-11-19T00:12:50;94908.06;;;3.00;100.00
7990;BME280;4040;42.848;23.034;2023-11-19T00:18:40;94910.44;;;3.05;100.00
7990;BME280;4040;42.848;23.034;2023-11-19T00:24:29;94803.38;;;2.32;100.00
7990;BME280;4040;42.848;23.034;2023-11-19T00:30:19;94913.81;;;3.21;100.00
7990;BME280;4040;42.848;23.034;2023-11-19T00:36:10;94918.41;;;3.24;100.00
7990;BME280;4040;42.848;23.034;2023-11-19T00:42:00;94930.44;;;3.18;100.00
7990;BME280;4040;42.848;23.034;2023-11-19T00:47:48;94923.72;;;3.24;100.00
7990;BME280;4040;42.848;23.034;2023-11-19T00:53:39;94932.84;;;3.23;100.00
7990;BME280;4040;42.848;23.034;2023-11-19T00:59:28;94922.47;;;3.18;100.00
7990;BME280;4040;42.848;23.034;2023-11-19T01:05:17;94917.44;;;3.13;100.00
7990;BME280;4040;42.848;23.034;2023-11-19T01:11:19;94932.00;;;3.19;100.00
7990;BME280;4040;42.848;23.034;2023-11-19T01:17:09;94942.50;;;3.12;100.00
7990;BME280;4040;42.848;23.034;2023-11-19T01:22:58;94937.19;;;3.12;100.00
7990;BME280;4040;42.848;23.034;2023-11-19T01:28:48;94944.53;;;3.18;100.00
7990;BME280;4040;42.848;23.034;2023-11-19T01:34:39;94942.66;;;3.19;100.00
7990;BME280;4040;42.848;23.034;2023-11-19T01:40:29;94937.59;;;3.14;100.00
7990;BME280;4040;42.848;23.034;2023-11-19T01:46:19;94954.84;;;3.20;100.00
7990;BME280;4040;42.848;23.034;2023-11-19T01:52:08;94951.72;;;3.18;100.00
7990;BME280;4040;42.848;23.034;2023-11-19T01:57:59;94943.34;;;3.16;100.00
7990;BME280;4040;42.848;23.034;2023-11-19T02:03:51;94933.19;;;3.02;100.00
7990;BME280;4040;42.848;23.034;2023-11-19T02:09:42;94940.81;;;3.04;100.00
7990;BME280;4040;42.848;23.034;2023-11-19T02:15:31;94950.41;;;3.08;100.00
7990;BME280;4040;42.848;23.034;2023-11-19T02:21:22;94948.38;;;3.02;100.00
7990;BME280;4040;42.848;23.034;2023-11-19T02:27:17;94929.91;;;2.90;100.00
7990;BME280;4040;42.848;23.034;2023-11-19T02:33:11;94933.53;;;2.82;100.00
7990;BME280;4040;42.848;23.034;2023-11-19T02:38:59;94946.25;;;2.73;100.00
7990;BME280;4040;42.848;23.034;2023-11-19T02:44:58;94959.44;;;2.85;100.00
7990;BME280;4040;42.848;23.034;2023-11-19T02:50:49;94954.97;;;2.89;100.00
7990;BME280;4040;42.848;23.034;2023-11-19T02:56:42;94955.50;;;2.79;100.00
7990;BME280;4040;42.848;23.034;2023-11-19T03:02:35;94959.97;;;2.75;100.00
7990;BME280;4040;42.848;23.034;2023-11-19T03:12:55;94979.31;;;2.91;100.00
7990;BME280;4040;42.848;23.034;2023-11-19T03:18:44;94954.97;;;2.89;100.00
7990;BME280;4040;42.848;23.034;2023-11-19T03:24:33;94951.31;;;2.97;100.00
7990;BME280;4040;42.848;23.034;2023-11-19T03:30:24;94970.09;;;3.04;100.00
7990;BME280;4040;42.848;23.034;2023-11-19T03:36:13;94973.63;;;3.08;100.00
7990;BME280;4040;42.848;23.034;2023-11-19T03:42:02;94981.03;;;2.99;100.00
7990;BME280;4040;42.848;23.034;2023-11-19T03:47:53;94990.53;;;3.00;100.00
7990;BME280;4040;42.848;23.034;2023-11-19T03:53:42;95007.63;;;2.99;100.00
7990;BME280;4040;42.848;23.034;2023-11-19T03:59:31;94985.34;;;2.88;100.00
7990;BME280;4040;42.848;23.034;2023-11-19T04:05:22;94985.34;;;2.88;100.00
7990;BME280;4040;42.848;23.034;2023-11-19T04:15:32;94983.47;;;2.73;100.00
7990;BME280;4040;42.848;23.034;2023-11-19T04:21:23;94980.50;;;2.74;100.00
7990;BME280;4040;42.848;23.034;2023-11-19T04:27:12;94991.75;;;2.68;100.00
7990;BME280;4040;42.848;23.034;2023-11-19T04:33:01;94991.59;;;2.61;100.00
7990;BME280;4040;42.848;23.034;2023-11-19T04:38:51;94986.09;;;2.54;100.00
7990;BME280;4040;42.848;23.034;2023-11-19T04:44:40;94981.38;;;2.47;100.00
7990;BME280;4040;42.848;23.034;2023-11-19T04:50:29;94995.03;;;2.46;100.00
7990;BME280;4040;42.848;23.034;2023-11-19T04:56:19;94991.19;;;2.43;100.00
7990;BME280;4040;42.848;23.034;2023-11-19T05:02:10;94998.66;;;2.38;100.00
7990;BME280;4040;42.848;23.034;2023-11-19T05:07:59;95000.88;;;2.36;100.00
7990;BME280;4040;42.848;23.034;2023-11-19T05:18:11;95001.56;;;2.33;100.00
7990;BME280;4040;42.848;23.034;2023-11-19T05:24:00;94979.44;;;2.29;100.00
7990;BME280;4040;42.848;23.034;2023-11-19T05:29:51;95007.75;;;2.22;100.00
7990;BME280;4040;42.848;23.034;2023-11-19T05:35:41;95015.19;;;2.32;100.00
7990;BME280;4040;42.848;23.034;2023-11-19T05:41:30;95025.03;;;2.31;100.00
7990;BME280;4040;42.848;23.034;2023-11-19T05:47:19;95036.00;;;2.45;100.00
7990;BME280;4040;42.848;23.034;2023-11-19T05:53:10;95043.66;;;2.46;100.00
7990;BME280;4040;42.848;23.034;2023-11-19T05:59:00;95067.22;;;2.48;100.00
7990;BME280;4040;42.848;23.034;2023-11-19T06:04:50;95061.91;;;2.48;100.00
7990;BME280;4040;42.848;23.034;2023-11-19T06:10:40;95058.97;;;2.53;100.00
7990;BME280;4040;42.848;23.034;2023-11-19T06:20:51;95060.97;;;2.56;100.00
7990;BME280;4040;42.848;23.034;2023-11-19T06:26:41;95058.31;;;2.56;100.00
7990;BME280;4040;42.848;23.034;2023-11-19T06:32:30;95078.28;;;2.50;100.00
7990;BME280;4040;42.848;23.034;2023-11-19T06:38:19;95063.78;;;2.63;100.00
7990;BME280;4040;42.848;23.034;2023-11-19T06:44:10;95077.69;;;2.72;100.00
7990;BME280;4040;42.848;23.034;2023-11-19T06:49:58;95079.50;;;2.68;100.00
7990;BME280;4040;42.848;23.034;2023-11-19T06:55:47;95094.66;;;2.52;100.00
7990;BME280;4040;42.848;23.034;2023-11-19T07:01:38;95098.34;;;2.47;100.00
7990;BME280;4040;42.848;23.034;2023-11-19T07:07:28;95104.09;;;2.65;100.00
7990;BME280;4040;42.848;23.034;2023-11-19T07:13:17;95112.50;;;2.67;100.00
7990;BME280;4040;42.848;23.034;2023-11-19T07:23:29;95124.09;;;2.59;100.00
7990;BME280;4040;42.848;23.034;2023-11-19T07:29:20;95127.78;;;2.70;100.00
7990;BME280;4040;42.848;23.034;2023-11-19T07:35:09;95118.41;;;2.76;100.00
7990;BME280;4040;42.848;23.034;2023-11-19T07:41:00;95117.34;;;3.11;100.00
7990;BME280;4040;42.848;23.034;2023-11-19T07:46:49;95095.84;;;3.01;100.00
7990;BME280;4040;42.848;23.034;2023-11-19T07:52:38;95100.50;;;3.23;100.00
7990;BME280;4040;42.848;23.034;2023-11-19T07:58:29;95114.06;;;3.18;100.00
7990;BME280;4040;42.848;23.034;2023-11-19T08:04:17;95107.78;;;3.26;100.00
7990;BME280;4040;42.848;23.034;2023-11-19T08:10:07;95126.00;;;3.24;100.00
7990;BME280;4040;42.848;23.034;2023-11-19T08:15:59;95134.78;;;3.43;100.00
7990;BME280;4040;42.848;23.034;2023-11-19T08:26:10;95140.34;;;3.54;100.00
7990;BME280;4040;42.848;23.034;2023-11-19T08:32:01;95162.31;;;3.32;100.00
7990;BME280;4040;42.848;23.034;2023-11-19T08:37:50;95161.84;;;2.95;100.00
7990;BME280;4040;42.848;23.034;2023-11-19T08:43:40;95168.50;;;3.20;100.00
7990;BME280;4040;42.848;23.034;2023-11-19T08:49:30;95166.38;;;3.45;100.00
7990;BME280;4040;42.848;23.034;2023-11-19T08:55:19;95164.44;;;3.42;100.00
7990;BME280;4040;42.848;23.034;2023-11-19T09:01:08;95170.44;;;3.39;100.00
7990;BME280;4040;42.848;23.034;2023-11-19T09:06:59;95164.38;;;3.23;100.00
7990;BME280;4040;42.848;23.034;2023-11-19T09:12:47;95174.09;;;3.15;100.00
7990;BME280;4040;42.848;23.034;2023-11-19T09:18:36;95187.38;;;3.31;100.00
7990;BME280;4040;42.848;23.034;2023-11-19T09:32:40;95148.75;;;3.56;100.00
7990;BME280;4040;42.848;23.034;2023-11-19T09:38:29;95126.75;;;3.59;100.00
7990;BME280;4040;42.848;23.034;2023-11-19T09:44:18;95119.63;;;3.82;100.00
7990;BME280;4040;42.848;23.034;2023-11-19T09:50:10;95119.06;;;3.73;100.00
7990;BME280;4040;42.848;23.034;2023-11-19T09:56:04;95104.78;;;3.81;100.00
7990;BME280;4040;42.848;23.034;2023-11-19T10:01:53;95118.03;;;3.77;100.00
7990;BME280;4040;42.848;23.034;2023-11-19T10:07:45;95102.72;;;3.74;100.00
7990;BME280;4040;42.848;23.034;2023-11-19T10:13:35;95114.56;;;3.77;100.00
7990;BME280;4040;42.848;23.034;2023-11-19T10:19:25;95089.75;;;3.92;100.00
7990;BME280;4040;42.848;23.034;2023-11-19T10:25:26;95077.66;;;4.17;100.00
7990;BME280;4040;42.848;23.034;2023-11-19T10:35:51;95087.03;;;4.30;100.00
7990;BME280;4040;42.848;23.034;2023-11-19T10:41:42;95079.63;;;4.42;100.00
7990;BME280;4040;42.848;23.034;2023-11-19T10:47:32;95077.44;;;4.48;100.00
7990;BME280;4040;42.848;23.034;2023-11-19T10:53:23;95066.19;;;4.35;100.00
7990;BME280;4040;42.848;23.034;2023-11-19T10:59:15;95053.03;;;4.46;100.00
7990;BME280;4040;42.848;23.034;2023-11-19T11:05:06;95039.88;;;4.34;100.00
7990;BME280;4040;42.848;23.034;2023-11-19T11:10:56;95052.25;;;4.45;100.00
7990;BME280;4040;42.848;23.034;2023-11-19T11:16:46;95035.31;;;5.97;100.00
7990;BME280;4040;42.848;23.034;2023-11-19T11:22:44;95010.22;;;10.41;80.24
7990;BME280;4040;42.848;23.034;2023-11-19T11:28:43;95014.28;;;12.18;59.97
7990;BME280;4040;42.848;23.034;2023-11-19T11:31:24;95005.94;;;9.75;64.14
7990;BME280;4040;42.848;23.034;2023-11-19T11:37:18;95016.47;;;7.27;74.13
7990;BME280;4040;42.848;23.034;2023-11-19T11:49:30;95001.44;;;8.08;80.84
7990;BME280;4040;42.848;23.034;2023-11-19T11:55:23;94996.34;;;7.61;77.46
7990;BME280;4040;42.848;23.034;2023-11-19T12:01:15;94995.94;;;6.37;89.23
7990;BME280;4040;42.848;23.034;2023-11-19T12:07:12;94982.00;;;6.14;100.00
7990;BME280;4040;42.848;23.034;2023-11-19T12:13:06;94992.00;;;5.51;100.00
7990;BME280;4040;42.848;23.034;2023-11-19T12:18:55;94969.16;;;5.57;100.00
7990;BME280;4040;42.848;23.034;2023-11-19T12:24:45;94967.22;;;5.54;100.00
7990;BME280;4040;42.848;23.034;2023-11-19T12:30:36;94974.50;;;5.57;100.00
7990;BME280;4040;42.848;23.034;2023-11-19T12:36:25;94956.88;;;5.49;100.00
7990;BME280;4040;42.848;23.034;2023-11-19T12:42:14;94960.84;;;5.62;100.00
7990;BME280;4040;42.848;23.034;2023-11-19T12:48:08;94941.59;;;5.50;100.00
7990;BME280;4040;42.848;23.034;2023-11-19T12:53:58;94960.69;;;5.48;100.00
7990;BME280;4040;42.848;23.034;2023-11-19T12:59:56;94960.03;;;5.58;100.00
7990;BME280;4040;42.848;23.034;2023-11-19T13:05:46;94947.78;;;5.57;100.00
7990;BME280;4040;42.848;23.034;2023-11-19T13:11:35;94950.06;;;5.55;100.00
7990;BME280;4040;42.848;23.034;2023-11-19T13:17:26;94934.78;;;5.52;100.00
7990;BME280;4040;42.848;23.034;2023-11-19T13:23:17;94923.69;;;5.50;100.00
7990;BME280;4040;42.848;23.034;2023-11-19T13:29:06;94941.19;;;5.81;100.00
7990;BME280;4040;42.848;23.034;2023-11-19T13:34:55;94940.81;;;6.22;100.00
7990;BME280;4040;42.848;23.034;2023-11-19T13:40:46;94946.16;;;6.22;100.00
7990;BME280;4040;42.848;23.034;2023-11-19T13:46:35;94946.81;;;6.09;100.00
7990;BME280;4040;42.848;23.034;2023-11-19T13:52:23;94952.97;;;6.16;100.00
7990;BME280;4040;42.848;23.034;2023-11-19T13:58:14;94963.41;;;5.88;100.00
7990;BME280;4040;42.848;23.034;2023-11-19T14:04:03;94974.84;;;5.85;100.00
7990;BME280;4040;42.848;23.034;2023-11-19T14:09:53;94980.75;;;5.68;100.00
7990;BME280;4040;42.848;23.034;2023-11-19T14:15:43;94970.63;;;5.51;100.00
7990;BME280;4040;42.848;23.034;2023-11-19T14:21:32;94945.69;;;5.07;100.00
7990;BME280;4040;42.848;23.034;2023-11-19T14:27:21;94971.56;;;5.03;100.00
7990;BME280;4040;42.848;23.034;2023-11-19T14:36:53;94970.28;;;4.65;100.00
7990;BME280;4040;42.848;23.034;2023-11-19T14:42:43;94972.19;;;4.42;100.00
7990;BME280;4040;42.848;23.034;2023-11-19T14:48:32;94979.97;;;4.28;100.00
7990;BME280;4040;42.848;23.034;2023-11-19T14:54:22;94968.50;;;4.01;100.00
7990;BME280;4040;42.848;23.034;2023-11-19T15:00:12;94982.38;;;3.69;100.00
7990;BME280;4040;42.848;23.034;2023-11-19T15:06:02;94982.94;;;3.59;100.00
7990;BME280;4040;42.848;23.034;2023-11-19T15:11:53;94977.94;;;3.35;100.00
7990;BME280;4040;42.848;23.034;2023-11-19T15:17:42;94990.75;;;3.29;100.00
7990;BME280;4040;42.848;23.034;2023-11-19T15:23:31;94998.16;;;3.20;100.00
7990;BME280;4040;42.848;23.034;2023-11-19T15:29:22;94985.56;;;3.17;100.00
7990;BME280;4040;42.848;23.034;2023-11-19T15:39:13;94992.22;;;2.89;100.00
7990;BME280;4040;42.848;23.034;2023-11-19T15:45:05;94983.91;;;2.75;100.00
7990;BME280;4040;42.848;23.034;2023-11-19T15:50:54;94986.72;;;2.82;100.00
7990;BME280;4040;42.848;23.034;2023-11-19T15:56:43;94999.97;;;2.97;100.00
7990;BME280;4040;42.848;23.034;2023-11-19T16:02:34;94996.56;;;3.16;100.00
7990;BME280;4040;42.848;23.034;2023-11-19T16:08:23;94982.09;;;3.13;100.00
7990;BME280;4040;42.848;23.034;2023-11-19T16:14:12;94975.69;;;2.99;100.00
7990;BME280;4040;42.848;23.034;2023-11-19T16:20:05;94976.81;;;3.17;100.00
7990;BME280;4040;42.848;23.034;2023-11-19T16:25:55;94949.44;;;3.16;100.00
7990;BME280;4040;42.848;23.034;2023-11-19T16:31:44;94968.50;;;3.37;100.00
7990;BME280;4040;42.848;23.034;2023-11-19T16:41:56;94983.91;;;3.70;100.00
7990;BME280;4040;42.848;23.034;2023-11-19T16:47:45;94997.22;;;3.70;100.00
7990;BME280;4040;42.848;23.034;2023-11-19T16:53:34;95005.94;;;3.67;100.00
7990;BME280;4040;42.848;23.034;2023-11-19T16:59:25;95004.47;;;3.69;100.00
7990;BME280;4040;42.848;23.034;2023-11-19T17:05:13;94996.81;;;3.68;100.00
7990;BME280;4040;42.848;23.034;2023-11-19T17:11:04;94996.78;;;3.87;100.00
7990;BME280;4040;42.848;23.034;2023-11-19T17:16:54;94992.97;;;4.07;100.00
7990;BME280;4040;42.848;23.034;2023-11-19T17:22:43;94988.56;;;4.18;100.00
7990;BME280;4040;42.848;23.034;2023-11-19T17:28:31;94995.16;;;4.24;100.00
7990;BME280;4040;42.848;23.034;2023-11-19T17:34:24;94983.59;;;4.39;100.00
7990;BME280;4040;42.848;23.034;2023-11-19T17:44:35;94981.31;;;4.41;100.00
7990;BME280;4040;42.848;23.034;2023-11-19T17:50:25;94991.78;;;4.27;100.00
7990;BME280;4040;42.848;23.034;2023-11-19T17:56:14;94971.16;;;4.24;100.00
7990;BME280;4040;42.848;23.034;2023-11-19T18:02:03;94986.09;;;4.06;100.00
7990;BME280;4040;42.848;23.034;2023-11-19T18:07:53;94996.41;;;4.07;100.00
7990;BME280;4040;42.848;23.034;2023-11-19T18:13:44;94996.88;;;4.13;100.00
7990;BME280;4040;42.848;23.034;2023-11-19T18:19:34;94994.13;;;4.32;100.00
7990;BME280;4040;42.848;23.034;2023-11-19T18:25:24;94989.09;;;4.49;100.00
7990;BME280;4040;42.848;23.034;2023-11-19T18:31:14;94978.25;;;4.39;100.00
7990;BME280;4040;42.848;23.034;2023-11-19T18:37:03;95001.00;;;4.33;100.00
7990;BME280;4040;42.848;23.034;2023-11-19T18:47:15;94997.63;;;4.36;100.00
7990;BME280;4040;42.848;23.034;2023-11-19T18:53:05;95008.50;;;4.24;100.00
7990;BME280;4040;42.848;23.034;2023-11-19T18:58:55;94999.25;;;4.18;100.00
7990;BME280;4040;42.848;23.034;2023-11-19T19:04:45;95013.91;;;4.31;100.00
7990;BME280;4040;42.848;23.034;2023-11-19T19:10:34;95003.38;;;4.38;100.00
7990;BME280;4040;42.848;23.034;2023-11-19T19:16:26;94997.03;;;4.23;100.00
7990;BME280;4040;42.848;23.034;2023-11-19T19:22:16;94982.78;;;4.35;100.00
7990;BME280;4040;42.848;23.034;2023-11-19T19:28:05;94983.59;;;4.39;100.00
7990;BME280;4040;42.848;23.034;2023-11-19T19:33:56;94985.56;;;4.68;100.00
7990;BME280;4040;42.848;23.034;2023-11-19T19:39:47;94983.91;;;4.60;100.00
7990;BME280;4040;42.848;23.034;2023-11-19T19:49:57;94983.09;;;4.56;100.00
7990;BME280;4040;42.848;23.034;2023-11-19T19:55:49;94967.78;;;4.53;100.00
7990;BME280;4040;42.848;23.034;2023-11-19T20:01:38;94954.88;;;4.81;100.00
7990;BME280;4040;42.848;23.034;2023-11-19T20:07:27;94941.53;;;4.81;100.00
7990;BME280;4040;42.848;23.034;2023-11-19T20:13:17;94943.19;;;4.37;100.00
7990;BME280;4040;42.848;23.034;2023-11-19T20:19:10;94949.25;;;3.89;100.00
7990;BME280;4040;42.848;23.034;2023-11-19T20:24:59;94969.38;;;3.64;100.00
7990;BME280;4040;42.848;23.034;2023-11-19T20:30:49;94968.53;;;3.60;100.00
7990;BME280;4040;42.848;23.034;2023-11-19T20:36:38;94955.50;;;3.55;100.00
7990;BME280;4040;42.848;23.034;2023-11-19T20:42:27;94958.97;;;3.36;100.00
7990;BME280;4040;42.848;23.034;2023-11-19T20:52:39;94959.03;;;3.40;100.00
7990;BME280;4040;42.848;23.034;2023-11-19T20:58:46;94937.34;;;3.60;100.00
7990;BME280;4040;42.848;23.034;2023-11-19T21:04:35;94947.41;;;3.70;100.00
7990;BME280;4040;42.848;23.034;2023-11-19T21:10:26;94967.25;;;3.73;100.00
7990;BME280;4040;42.848;23.034;2023-11-19T21:16:15;94969.75;;;3.85;100.00
7990;BME280;4040;42.848;23.034;2023-11-19T21:22:04;94956.56;;;3.92;100.00
7990;BME280;4040;42.848;23.034;2023-11-19T21:27:54;94942.38;;;3.88;100.00
7990;BME280;4040;42.848;23.034;2023-11-19T21:33:43;94925.59;;;3.84;100.00
7990;BME280;4040;42.848;23.034;2023-11-19T21:39:32;94924.63;;;3.73;100.00
7990;BME280;4040;42.848;23.034;2023-11-19T21:45:23;94930.84;;;3.39;100.00
7990;BME280;4040;42.848;23.034;2023-11-19T21:55:33;94915.03;;;3.27;100.00
7990;BME280;4040;42.848;23.034;2023-11-19T22:01:24;94910.44;;;3.24;100.00
7990;BME280;4040;42.848;23.034;2023-11-19T22:07:13;94903.84;;;3.18;100.00
7990;BME280;4040;42.848;23.034;2023-11-19T22:13:02;94902.59;;;2.93;100.00
7990;BME280;4040;42.848;23.034;2023-11-19T22:18:52;94908.19;;;2.69;100.00
7990;BME280;4040;42.848;23.034;2023-11-19T22:24:41;94911.09;;;2.45;100.00
7990;BME280;4040;42.848;23.034;2023-11-19T22:30:29;94922.28;;;2.54;100.00
7990;BME280;4040;42.848;23.034;2023-11-19T22:36:20;94919.13;;;2.83;100.00
7990;BME280;4040;42.848;23.034;2023-11-19T22:42:10;94916.47;;;3.02;100.00
7990;BME280;4040;42.848;23.034;2023-11-19T22:47:58;94927.34;;;3.35;100.00
7990;BME280;4040;42.848;23.034;2023-11-19T22:58:11;94940.22;;;3.71;100.00
7990;BME280;4040;42.848;23.034;2023-11-19T23:08:34;94916.63;;;3.09;100.00
7990;BME280;4040;42.848;23.034;2023-11-19T23:14:24;94918.81;;;3.07;100.00
7990;BME280;4040;42.848;23.034;2023-11-19T23:20:13;94911.00;;;2.95;100.00
7990;BME280;4040;42.848;23.034;2023-11-19T23:26:04;94904.06;;;2.90;100.00
7990;BME280;4040;42.848;23.034;2023-11-19T23:31:53;94906.38;;;2.92;100.00
7990;BME280;4040;42.848;23.034;2023-11-19T23:37:42;94889.44;;;2.81;100.00
7990;BME280;4040;42.848;23.034;2023-11-19T23:43:32;94907.66;;;2.98;100.00
7990;BME280;4040;42.848;23.034;2023-11-19T23:49:22;94905.41;;;2.81;100.00
7990;BME280;4040;42.848;23.034;2023-11-19T23:55:12;94891.53;;;2.72;100.00
